createdAt,value
2019-04-22T00:01:21.510Z,101608.00
2019-04-22T00:04:12.027Z,101610.95
2019-04-22T00:07:15.638Z,101602.66
2019-04-22T00:10:11.599Z,101601.08
2019-04-22T00:13:09.121Z,101594.53
2019-04-22T00:15:53.841Z,101589.33
2019-04-22T00:19:01.812Z,101588.55
2019-04-22T00:21:41.924Z,101585.63
2019-04-22T00:24:24.519Z,101586.26
2019-04-22T00:27:39.174Z,101586.42
2019-04-22T00:30:16.504Z,101582.65
2019-04-22T00:33:08.038Z,101581.92
2019-04-22T00:36:07.014Z,101572.20
2019-04-22T00:38:51.641Z,101571.03
2019-04-22T00:41:42.832Z,101563.31
2019-04-22T00:44:40.349Z,101558.95
2019-04-22T00:47:29.345Z,101557.38
2019-04-22T00:50:19.283Z,101550.91
2019-04-22T00:53:08.873Z,101543.80
2019-04-22T00:56:05.520Z,101544.12
2019-04-22T00:58:51.191Z,101535.75
2019-04-22T01:01:45.739Z,101537.34
2019-04-22T01:04:39.190Z,101538.36
2019-04-22T01:07:30.451Z,101535.36
2019-04-22T01:10:20.630Z,101531.66
2019-04-22T01:13:11.372Z,101529.14
2019-04-22T01:16:08.894Z,101521.70
2019-04-22T01:18:55.435Z,101519.67
2019-04-22T01:24:32.649Z,101516.39
2019-04-22T01:27:19.111Z,101506.67
2019-04-22T01:30:05.771Z,101505.58
2019-04-22T01:32:47.267Z,101503.50
2019-04-22T01:35:50.696Z,101501.47
2019-04-22T01:38:56.336Z,101495.86
2019-04-22T01:41:51.679Z,101492.00
2019-04-22T01:44:34.506Z,101495.30
2019-04-22T01:47:26.658Z,101490.94
2019-04-22T01:50:15.216Z,101487.97
2019-04-22T01:53:06.349Z,101482.81
2019-04-22T01:55:57.388Z,101479.35
2019-04-22T01:58:40.260Z,101486.30
2019-04-22T02:01:48.409Z,101481.09
2019-04-22T02:04:35.423Z,101478.61
2019-04-22T02:07:16.739Z,101482.31
2019-04-22T02:10:12.179Z,101480.67
2019-04-22T02:13:01.989Z,101473.72
2019-04-22T02:15:53.797Z,101466.28
2019-04-22T02:18:49.109Z,101465.10
2019-04-22T02:21:38.549Z,101460.75
2019-04-22T02:24:30.158Z,101456.48
2019-04-22T02:27:17.778Z,101455.22
2019-04-22T02:30:05.432Z,101448.27
2019-04-22T02:36:15.579Z,101443.30
2019-04-22T02:50:06.597Z,101419.92
2019-04-22T02:53:10.106Z,101422.67
2019-04-22T02:56:02.141Z,101418.00
2019-04-22T03:07:10.673Z,101401.12
2019-04-22T03:13:00.048Z,101384.88
2019-04-22T03:16:01.042Z,101389.90
2019-04-22T03:18:52.438Z,101388.64
2019-04-22T03:21:34.345Z,101390.13
2019-04-22T03:30:41.691Z,101378.42
2019-04-22T03:39:10.870Z,101371.59
2019-04-22T03:41:48.138Z,101367.73
2019-04-22T03:44:31.825Z,101366.46
2019-04-22T03:47:26.340Z,101371.89
2019-04-22T03:50:17.381Z,101366.13
2019-04-22T03:53:06.254Z,101368.88
2019-04-22T03:55:57.625Z,101363.60
2019-04-22T03:58:51.177Z,101364.61
2019-04-22T04:01:53.650Z,101358.06
2019-04-22T04:04:39.318Z,101361.63
2019-04-22T04:11:34.076Z,101354.80
2019-04-22T04:16:03.151Z,101352.20
2019-04-22T04:25:14.767Z,101355.17
2019-04-22T04:33:17.427Z,101351.30
2019-04-22T04:36:02.750Z,101350.48
2019-04-22T04:39:02.955Z,101339.00
2019-04-22T04:44:59.283Z,101339.93
2019-04-22T04:56:05.886Z,101345.58
2019-04-22T04:59:05.522Z,101346.50
2019-04-22T05:01:45.007Z,101344.72
2019-04-22T05:07:26.113Z,101339.48
2019-04-22T05:10:25.968Z,101333.27
2019-04-22T05:16:14.828Z,101335.47
2019-04-22T05:18:46.514Z,101334.20
2019-04-22T05:21:42.181Z,101339.11
2019-04-22T05:24:29.934Z,101341.30
2019-04-22T05:32:55.329Z,101332.72
2019-04-22T05:35:46.296Z,101334.02
2019-04-22T05:38:39.895Z,101330.00
2019-04-22T05:41:32.381Z,101332.61
2019-04-22T05:44:25.707Z,101334.73
2019-04-22T05:47:08.462Z,101329.71
2019-04-22T05:49:55.275Z,101334.44
2019-04-22T05:52:52.658Z,101332.50
2019-04-22T05:55:47.947Z,101338.11
2019-04-22T05:58:39.716Z,101329.38
2019-04-22T06:04:14.735Z,101327.95
2019-04-22T06:07:09.678Z,101328.05
2019-04-22T06:10:08.316Z,101322.88
2019-04-22T06:12:43.234Z,101322.93
2019-04-22T06:15:37.535Z,101313.25
2019-04-22T06:18:33.476Z,101312.41
2019-04-22T06:21:30.818Z,101311.97
2019-04-22T06:24:23.561Z,101313.77
2019-04-22T06:27:17.399Z,101314.66
2019-04-22T06:29:53.748Z,101303.09
2019-04-22T06:32:51.790Z,101312.79
2019-04-22T06:41:24.474Z,101316.16
2019-04-22T06:47:37.965Z,101315.39
2019-04-22T06:49:55.590Z,101306.30
2019-04-22T06:52:50.260Z,101311.09
2019-04-22T06:55:36.780Z,101308.23
2019-04-22T06:58:20.128Z,101301.80
2019-04-22T07:04:03.122Z,101303.41
2019-04-22T07:09:54.378Z,101302.11
2019-04-22T07:12:58.331Z,101296.00
2019-04-22T07:21:12.608Z,101298.75
2019-04-22T07:24:27.692Z,101301.96
2019-04-22T07:26:58.604Z,101294.99
2019-04-22T07:29:55.364Z,101296.36
2019-04-22T07:32:58.073Z,101297.41
2019-04-22T07:35:36.281Z,101291.27
2019-04-22T07:38:25.609Z,101298.39
2019-04-22T07:41:27.386Z,101290.94
2019-04-22T07:44:13.004Z,101289.56
2019-04-22T07:46:59.405Z,101284.77
2019-04-22T07:49:46.918Z,101283.88
2019-04-22T07:52:34.881Z,101280.63
2019-04-22T07:55:27.312Z,101275.56
2019-04-22T07:58:18.637Z,101268.53
2019-04-22T08:01:12.105Z,101266.52
2019-04-22T08:04:08.615Z,101269.40
2019-04-22T08:06:51.627Z,101263.81
2019-04-22T08:09:44.555Z,101259.07
2019-04-22T08:12:43.021Z,101265.73
2019-04-22T08:15:27.234Z,101264.63
2019-04-22T08:18:17.876Z,101266.95
2019-04-22T08:21:09.101Z,101267.06
2019-04-22T08:24:01.351Z,101267.69
2019-04-22T08:26:56.424Z,101256.84
2019-04-22T08:29:52.317Z,101259.40
2019-04-22T08:32:37.577Z,101262.77
2019-04-22T08:35:29.827Z,101259.47
2019-04-22T08:38:14.761Z,101260.75
2019-04-22T08:41:23.512Z,101249.80
2019-04-22T08:47:04.694Z,101251.89
2019-04-22T08:49:56.964Z,101246.66
2019-04-22T08:52:58.275Z,101241.09
2019-04-22T08:55:33.983Z,101238.45
2019-04-22T09:01:11.622Z,101227.09
2019-04-22T09:04:02.276Z,101227.00
2019-04-22T09:07:07.235Z,101229.38
2019-04-22T09:09:44.553Z,101222.19
2019-04-22T09:12:53.264Z,101226.59
2019-04-22T09:15:30.458Z,101216.64
2019-04-22T09:18:25.459Z,101213.08
2019-04-22T09:21:18.744Z,101217.34
2019-04-22T09:24:05.268Z,101212.41
2019-04-22T09:35:31.736Z,101198.81
2019-04-22T09:38:32.865Z,101193.90
2019-04-22T09:41:14.095Z,101190.70
2019-04-22T09:44:02.358Z,101187.91
2019-04-22T09:47:00.428Z,101182.53
2019-04-22T09:49:58.179Z,101181.44
2019-04-22T09:52:48.912Z,101171.47
2019-04-22T09:55:37.412Z,101167.09
2019-04-22T09:58:37.939Z,101169.91
2019-04-22T10:01:38.889Z,101160.89
2019-04-22T10:04:09.994Z,101155.29
2019-04-22T10:07:13.755Z,101152.69
2019-04-22T10:10:07.450Z,101158.59
2019-04-22T10:12:48.205Z,101155.27
2019-04-22T10:15:50.189Z,101150.06
2019-04-22T10:18:42.059Z,101137.44
2019-04-22T10:21:40.677Z,101138.16
2019-04-22T10:24:26.736Z,101131.16
2019-04-22T10:27:07.949Z,101124.52
2019-04-22T10:32:52.704Z,101116.53
2019-04-22T10:35:23.616Z,101115.46
2019-04-22T10:38:14.335Z,101109.41
2019-04-22T10:41:06.215Z,101104.08
2019-04-22T10:44:01.283Z,101101.94
2019-04-22T10:46:53.767Z,101097.38
2019-04-22T10:49:44.572Z,101090.58
2019-04-22T10:52:37.176Z,101083.55
2019-04-22T10:55:27.490Z,101085.63
2019-04-22T10:58:17.028Z,101078.31
2019-04-22T11:01:07.319Z,101071.14
2019-04-22T11:03:59.606Z,101073.72
2019-04-22T11:06:55.564Z,101064.19
2019-04-22T11:09:51.703Z,101067.23
2019-04-22T11:12:38.031Z,101061.83
2019-04-22T11:15:28.723Z,101054.65
2019-04-22T11:18:20.024Z,101055.05
2019-04-22T11:21:13.873Z,101049.62
2019-04-22T11:24:03.077Z,101041.22
2019-04-22T11:26:56.923Z,101043.51
2019-04-22T11:29:47.705Z,101040.43
2019-04-22T11:32:38.571Z,101045.94
2019-04-22T11:35:33.958Z,101036.01
2019-04-22T11:38:26.701Z,101035.03
2019-04-22T11:41:19.361Z,101031.40
2019-04-22T11:44:09.640Z,101039.98
2019-04-22T11:46:59.142Z,101026.42
2019-04-22T11:49:50.052Z,101023.01
2019-04-22T11:52:42.608Z,101017.59
2019-04-22T11:55:32.893Z,101020.20
2019-04-22T11:58:26.478Z,101016.91
2019-04-22T12:01:16.607Z,101012.83
2019-04-22T12:04:07.659Z,100999.59
2019-04-22T12:06:58.033Z,101001.48
2019-04-22T12:09:47.841Z,100987.41
2019-04-22T12:12:37.941Z,100977.80
2019-04-22T12:15:28.806Z,100985.63
2019-04-22T12:18:19.545Z,100981.08
2019-04-22T12:21:10.987Z,100982.27
2019-04-22T12:24:05.948Z,100974.44
2019-04-22T12:26:53.109Z,100960.88
2019-04-22T12:29:47.076Z,100951.89
2019-04-22T12:32:41.434Z,100954.68
2019-04-22T12:35:32.722Z,100962.10
2019-04-22T12:38:25.379Z,100949.89
2019-04-22T12:41:17.821Z,100941.81
2019-04-22T12:44:14.998Z,100941.82
2019-04-22T12:47:11.008Z,100944.18
2019-04-22T12:50:12.275Z,100942.98
2019-04-22T12:52:59.360Z,100935.58
2019-04-22T12:55:48.067Z,100945.97
2019-04-22T12:58:38.028Z,100930.16
2019-04-22T13:01:28.953Z,100927.47
2019-04-22T13:04:21.304Z,100935.33
2019-04-22T13:07:11.541Z,100927.04
2019-04-22T13:10:01.590Z,100926.09
2019-04-22T13:12:51.231Z,100921.11
2019-04-22T13:15:41.296Z,100908.25
2019-04-22T13:18:38.106Z,100898.91
2019-04-22T13:21:22.770Z,100890.73
2019-04-22T13:24:13.318Z,100897.53
2019-04-22T13:27:03.322Z,100893.16
2019-04-22T13:29:53.419Z,100890.07
2019-04-22T13:32:42.988Z,100872.94
2019-04-22T13:35:33.924Z,100878.67
2019-04-22T13:38:24.990Z,100869.72
2019-04-22T13:41:26.151Z,100870.87
2019-04-22T13:44:06.748Z,100866.05
2019-04-22T13:47:14.765Z,100863.69
2019-04-22T13:50:23.825Z,100853.30
2019-04-22T13:53:24.509Z,100850.00
2019-04-22T13:58:35.458Z,100839.08
2019-04-22T14:01:14.688Z,100840.34
2019-04-22T14:04:10.254Z,100828.45
2019-04-22T14:07:00.755Z,100826.98
2019-04-22T14:09:50.741Z,100833.19
2019-04-22T14:12:40.288Z,100820.95
2019-04-22T14:15:29.816Z,100818.16
2019-04-22T14:18:19.379Z,100814.25
2019-04-22T14:21:09.140Z,100810.34
2019-04-22T14:23:58.644Z,100801.80
2019-04-22T14:27:01.308Z,100824.68
2019-04-22T14:29:39.781Z,100801.88
2019-04-22T14:32:31.803Z,100806.20
2019-04-22T14:35:20.856Z,100800.73
2019-04-22T14:38:10.311Z,100794.94
2019-04-22T14:41:00.811Z,100784.06
2019-04-22T14:45:02.513Z,100782.80
2019-04-22T14:47:09.318Z,100774.88
2019-04-22T14:49:52.864Z,100771.92
2019-04-22T14:52:47.562Z,100783.02
2019-04-22T14:55:23.087Z,100771.47
2019-04-22T14:58:09.031Z,100767.64
2019-04-22T15:00:59.140Z,100763.00
2019-04-22T15:03:50.294Z,100763.09
2019-04-22T15:06:40.430Z,100757.28
2019-04-22T15:09:32.108Z,100755.69
2019-04-22T15:12:33.669Z,100757.36
2019-04-22T15:15:29.257Z,100749.60
2019-04-22T15:18:33.574Z,100749.03
2019-04-22T15:21:24.953Z,100751.77
2019-04-22T15:24:25.277Z,100745.50
2019-04-22T15:27:16.245Z,100748.87
2019-04-22T15:30:07.589Z,100742.06
2019-04-22T15:32:57.263Z,100735.64
2019-04-22T15:35:47.256Z,100743.62
2019-04-22T15:38:36.569Z,100725.76
2019-04-22T15:41:26.349Z,100732.32
2019-04-22T15:44:15.515Z,100729.63
2019-04-22T15:47:06.870Z,100725.91
2019-04-22T15:49:58.240Z,100731.00
2019-04-22T15:52:51.947Z,100722.70
2019-04-22T15:55:40.905Z,100731.63
2019-04-22T15:58:30.193Z,100724.91
2019-04-22T16:01:27.488Z,100726.91
2019-04-22T16:04:10.509Z,100725.67
2019-04-22T16:07:01.193Z,100714.26
2019-04-22T16:09:51.917Z,100724.95
2019-04-22T16:12:52.964Z,100715.67
2019-04-22T16:15:32.464Z,100712.58
2019-04-22T16:18:22.528Z,100713.09
2019-04-22T16:21:14.336Z,100709.52
2019-04-22T16:24:29.740Z,100710.58
2019-04-22T16:27:22.865Z,100705.55
2019-04-22T16:30:13.356Z,100698.65
2019-04-22T16:33:03.451Z,100700.97
2019-04-22T16:35:53.244Z,100704.94
2019-04-22T16:38:42.845Z,100688.50
2019-04-22T16:41:32.791Z,100691.05
2019-04-22T16:44:22.701Z,100680.70
2019-04-22T16:47:13.218Z,100683.63
2019-04-22T16:50:02.040Z,100683.11
2019-04-22T16:52:52.218Z,100678.91
2019-04-22T16:55:41.967Z,100668.63
2019-04-22T16:58:32.723Z,100667.98
2019-04-22T17:01:38.799Z,100663.54
2019-04-22T17:04:44.948Z,100663.87
2019-04-22T17:07:36.127Z,100658.73
2019-04-22T17:10:26.106Z,100659.00
2019-04-22T17:13:20.699Z,100658.98
2019-04-22T17:16:07.511Z,100652.75
2019-04-22T17:18:56.532Z,100648.52
2019-04-22T17:21:47.938Z,100657.30
2019-04-22T17:24:41.594Z,100650.22
2019-04-22T17:27:34.453Z,100653.00
2019-04-22T17:30:22.349Z,100653.77
2019-04-22T17:33:12.663Z,100655.92
2019-04-22T17:36:03.315Z,100653.21
2019-04-22T17:39:07.081Z,100644.51
2019-04-22T17:42:05.048Z,100647.30
2019-04-22T17:45:31.344Z,100642.72
2019-04-22T17:48:40.222Z,100645.03
2019-04-22T17:51:31.485Z,100654.98
2019-04-22T17:54:19.161Z,100654.09
2019-04-22T17:57:09.918Z,100650.11
2019-04-22T18:00:01.429Z,100651.57
2019-04-22T18:05:13.107Z,100660.38
2019-04-22T18:08:25.468Z,100660.83
2019-04-22T18:11:24.514Z,100662.48
2019-04-22T18:14:25.913Z,100664.43
2019-04-22T18:17:05.796Z,100668.96
2019-04-22T18:20:55.098Z,100663.91
2019-04-22T18:23:47.411Z,100667.41
2019-04-22T18:26:47.957Z,100665.30
2019-04-22T18:29:40.173Z,100660.75
2019-04-22T18:32:18.122Z,100662.48
2019-04-22T18:35:14.136Z,100667.64
2019-04-22T18:38:18.209Z,100668.02
2019-04-22T18:41:07.275Z,100672.53
2019-04-22T18:44:01.862Z,100672.20
2019-04-22T18:46:50.956Z,100673.23
2019-04-22T18:49:45.348Z,100671.20
2019-04-22T18:52:54.399Z,100684.16
2019-04-22T18:55:50.440Z,100679.98
2019-04-22T18:58:43.736Z,100677.64
2019-04-22T19:01:23.960Z,100682.83
2019-04-22T19:04:26.571Z,100681.27
2019-04-22T19:07:36.322Z,100684.66
2019-04-22T19:10:30.865Z,100686.60
2019-04-22T19:19:20.966Z,100684.69
2019-04-22T19:21:51.382Z,100698.45
2019-04-22T19:24:39.871Z,100695.50
2019-04-22T19:27:34.675Z,100696.80
2019-04-22T19:30:33.138Z,100696.40
2019-04-22T19:33:18.984Z,100707.58
2019-04-22T19:36:12.591Z,100697.10
2019-04-22T19:38:58.927Z,100704.67
2019-04-22T19:41:59.278Z,100707.83
2019-04-22T19:44:43.846Z,100703.50
2019-04-22T19:47:43.372Z,100707.13
2019-04-22T19:50:35.049Z,100699.04
2019-04-22T19:53:30.742Z,100697.59
2019-04-22T19:56:11.490Z,100705.96
2019-04-22T19:59:12.249Z,100699.58
2019-04-22T20:02:27.491Z,100699.81
2019-04-22T20:05:45.179Z,100701.06
2019-04-22T20:08:30.211Z,100698.58
2019-04-22T20:11:29.884Z,100698.11
2019-04-22T20:14:37.377Z,100692.23
2019-04-22T20:17:08.027Z,100691.75
2019-04-22T20:20:09.871Z,100684.84
2019-04-22T20:22:52.441Z,100685.23
2019-04-22T20:25:44.892Z,100686.47
2019-04-22T20:28:48.683Z,100685.86
2019-04-22T20:31:39.526Z,100687.36
2019-04-22T20:34:32.143Z,100683.88
2019-04-22T20:37:34.270Z,100682.02
2019-04-22T20:40:21.863Z,100682.25
2019-04-22T20:43:09.326Z,100683.47
2019-04-22T20:45:57.759Z,100682.84
2019-04-22T20:48:56.986Z,100677.97
2019-04-22T20:51:55.653Z,100684.97
2019-04-22T20:54:40.627Z,100682.62
2019-04-22T20:57:34.746Z,100689.13
2019-04-22T21:00:21.569Z,100681.69
2019-04-22T21:03:06.213Z,100689.15
2019-04-22T21:06:00.740Z,100681.70
2019-04-22T21:09:00.891Z,100684.61
2019-04-22T21:11:50.790Z,100682.11
2019-04-22T21:14:44.069Z,100682.81
2019-04-22T21:17:36.581Z,100691.14
2019-04-22T21:20:34.470Z,100685.03
2019-04-22T21:23:23.222Z,100682.52
2019-04-22T21:26:13.551Z,100682.72
2019-04-22T21:29:15.916Z,100688.69
2019-04-22T21:32:15.900Z,100702.78
2019-04-22T21:35:05.772Z,100689.39
2019-04-22T21:37:57.960Z,100685.98
2019-04-22T21:40:43.377Z,100675.20
2019-04-22T21:43:37.855Z,100685.56
2019-04-22T21:46:30.381Z,100676.64
2019-04-22T21:49:18.936Z,100678.54
2019-04-22T21:52:15.333Z,100679.94
2019-04-22T21:55:10.238Z,100672.83
2019-04-22T21:58:16.123Z,100672.02
2019-04-22T22:01:20.154Z,100679.29
2019-04-22T22:04:05.388Z,100680.34
2019-04-22T22:06:41.249Z,100674.59
2019-04-22T22:09:44.456Z,100677.83
2019-04-22T22:12:39.712Z,100674.13
2019-04-22T22:15:28.635Z,100676.02
2019-04-22T22:18:12.346Z,100678.14
2019-04-22T22:21:33.411Z,100669.18
2019-04-22T22:24:10.125Z,100656.91
2019-04-22T22:26:57.076Z,100668.21
2019-04-22T22:32:33.771Z,100664.58
2019-04-22T22:35:31.563Z,100661.39
2019-04-22T22:38:18.070Z,100663.63
2019-04-22T22:40:50.078Z,100659.47
2019-04-22T22:43:46.600Z,100661.17
2019-04-22T22:46:40.134Z,100656.80
2019-04-22T22:49:42.466Z,100657.53
2019-04-22T22:55:21.782Z,100664.17
2019-04-22T22:58:16.135Z,100660.38
2019-04-22T23:01:06.336Z,100662.49
2019-04-22T23:03:59.224Z,100654.74
2019-04-22T23:06:53.199Z,100654.28
2019-04-22T23:09:36.525Z,100645.69
2019-04-22T23:12:34.626Z,100644.22
2019-04-22T23:15:15.516Z,100646.80
2019-04-22T23:17:50.017Z,100648.15
2019-04-22T23:20:45.147Z,100635.91
2019-04-22T23:23:51.671Z,100632.59
2019-04-22T23:26:43.938Z,100624.88
2019-04-22T23:29:45.933Z,100629.73
2019-04-22T23:32:35.279Z,100621.05
2019-04-22T23:35:36.568Z,100627.16
2019-04-22T23:38:33.903Z,100620.42
2019-04-22T23:41:51.077Z,100619.32
2019-04-22T23:44:28.543Z,100617.97
2019-04-22T23:47:29.277Z,100607.90
2019-04-22T23:50:27.891Z,100607.80
2019-04-22T23:56:28.088Z,100603.63
2019-04-22T23:59:38.561Z,100599.58
